Thawville, Illinois
Current Conditions -  °F | °C
As of 11:50 AM on Friday 31 Oct 2014 (Local Time) from KTIP Reporting Station
Overcast Overcast  
Wind Chill: 32°   Ceiling: 3500
Heat Index: 42°   Visibility: 10mi
Dew Point: 28°   Wind: 26mph
Humidity: 59%   Direction: 350°N
Pressure: 30.15"   Gusts: 37mph
Location:  40.68°N, 88.12°W
Report Text: KTIP 311650Z AUTO 35023G32KT 10SM OVC035 06/M02 A3015 RMK AO2 T00551020
Loading
Personal Weather Stations






























Interactive Weather Map
Tropical Storm Tracking
New forecast layout! Learn more

10-Day Weather Forecast

Advertisements
Track Severe Weather on mobile